TimeCST,TemperatureF,Dew PointF,Humidity,Sea Level PressureIn,VisibilityMPH,Wind Direction,Wind SpeedMPH,Gust SpeedMPH,PrecipitationIn,Events,Conditions,WindDirDegrees,DateUTC
12:53 AM,50.0,37.9,63,29.95,10.0,South,16.1,-,N/A,,Clear,170,2012-11-22 06:53:00
1:53 AM,50.0,37.0,61,29.93,10.0,South,15.0,-,N/A,,Clear,170,2012-11-22 07:53:00
2:53 AM,48.9,36.0,61,29.91,10.0,South,15.0,-,N/A,,Clear,170,2012-11-22 08:53:00
3:53 AM,48.9,36.0,61,29.88,10.0,South,16.1,-,N/A,,Clear,170,2012-11-22 09:53:00
4:53 AM,50.0,36.0,59,29.86,10.0,South,15.0,-,N/A,,Partly Cloudy,180,2012-11-22 10:53:00
5:53 AM,52.0,37.0,57,29.84,10.0,South,17.3,-,N/A,,Overcast,180,2012-11-22 11:53:00
6:53 AM,50.0,37.0,61,29.83,10.0,South,13.8,-,N/A,,Partly Cloudy,180,2012-11-22 12:53:00
7:53 AM,51.1,39.0,63,29.84,10.0,South,11.5,-,N/A,,Clear,180,2012-11-22 13:53:00
8:53 AM,55.0,39.9,57,29.83,10.0,South,13.8,-,N/A,,Clear,190,2012-11-22 14:53:00
9:53 AM,57.9,43.0,58,29.83,10.0,South,11.5,-,N/A,,Clear,180,2012-11-22 15:53:00
10:53 AM,61.0,44.1,54,29.81,10.0,SSW,15.0,24.2,0.00,,Clear,200,2012-11-22 16:53:00
11:53 AM,61.0,44.1,54,29.78,10.0,SSW,15.0,-,N/A,,Mostly Cloudy,210,2012-11-22 17:53:00
12:53 PM,61.0,46.0,58,29.76,10.0,SSW,15.0,-,N/A,,Mostly Cloudy,200,2012-11-22 18:53:00
1:53 PM,63.0,46.9,56,29.74,10.0,SSW,17.3,23.0,N/A,,Clear,200,2012-11-22 19:53:00
2:53 PM,64.0,48.0,56,29.76,10.0,SW,15.0,23.0,0.00,,Clear,220,2012-11-22 20:53:00
3:53 PM,64.0,48.9,58,29.80,10.0,West,13.8,-,N/A,,Partly Cloudy,260,2012-11-22 21:53:00
4:53 PM,57.0,37.0,47,29.87,10.0,WNW,13.8,-,N/A,,Clear,300,2012-11-22 22:53:00
5:53 PM,54.0,37.9,55,29.94,10.0,NW,23.0,35.7,N/A,,Clear,310,2012-11-22 23:53:00
6:53 PM,48.0,35.1,61,30.00,10.0,NW,19.6,39.1,N/A,,Clear,310,2012-11-23 00:53:00
7:53 PM,45.0,34.0,65,30.05,10.0,NW,20.7,31.1,N/A,,Clear,310,2012-11-23 01:53:00
8:53 PM,42.1,33.1,70,30.08,10.0,NW,15.0,-,N/A,,Clear,310,2012-11-23 02:53:00
9:53 PM,41.0,32.0,70,30.09,10.0,WNW,12.7,-,N/A,,Clear,290,2012-11-23 03:53:00
10:53 PM,39.9,32.0,73,30.11,10.0,WNW,24.2,29.9,N/A,,Clear,300,2012-11-23 04:53:00
11:53 PM,39.0,28.9,67,30.11,10.0,West,9.2,20.7,N/A,,Clear,280,2012-11-23 05:53:00